createdAt,value
2022-12-20T00:00:05.578Z,21.1100
2022-12-20T00:00:16.735Z,21.1100
2022-12-20T00:00:27.821Z,21.1100
2022-12-20T00:00:38.921Z,21.1100
2022-12-20T00:00:50.032Z,21.1100
2022-12-20T00:01:01.115Z,21.1100
2022-12-20T00:01:12.211Z,21.1200
2022-12-20T00:01:23.414Z,21.1200
2022-12-20T00:01:34.558Z,21.1200
2022-12-20T00:01:45.848Z,21.1200
2022-12-20T00:01:57.182Z,21.1200
2022-12-20T00:02:08.693Z,21.1200
2022-12-20T00:02:20.203Z,21.1200
2022-12-20T00:02:31.445Z,21.1100
2022-12-20T00:02:42.653Z,21.1100
2022-12-20T00:02:53.747Z,21.1100
2022-12-20T00:03:04.871Z,21.1100
2022-12-20T00:03:16.127Z,21.1100
2022-12-20T00:03:27.178Z,21.1100
2022-12-20T00:03:38.273Z,21.1100
2022-12-20T00:03:49.350Z,21.1100
2022-12-20T00:04:00.539Z,21.1200
2022-12-20T00:04:11.724Z,21.1200
2022-12-20T00:04:22.776Z,21.1200
2022-12-20T00:04:33.812Z,21.1200
2022-12-20T00:04:44.874Z,21.1200
2022-12-20T00:04:55.966Z,21.1300
2022-12-20T00:05:07.060Z,21.1300
2022-12-20T00:05:18.271Z,21.1400
2022-12-20T00:05:29.468Z,21.1400
2022-12-20T00:05:40.660Z,21.1400
2022-12-20T00:05:51.726Z,21.1400
2022-12-20T00:06:02.800Z,21.1400
2022-12-20T00:06:13.927Z,21.1400
2022-12-20T00:06:25.151Z,21.1400
2022-12-20T00:06:36.332Z,21.1400
2022-12-20T00:06:47.385Z,21.1400
2022-12-20T00:06:58.444Z,21.1400
2022-12-20T00:07:09.623Z,21.1400
2022-12-20T00:07:20.692Z,21.1400
2022-12-20T00:07:31.932Z,21.1400
2022-12-20T00:07:43.091Z,21.1500
2022-12-20T00:07:54.302Z,21.1500
2022-12-20T00:08:05.345Z,21.1500
2022-12-20T00:08:16.442Z,21.1500
2022-12-20T00:08:27.552Z,21.1500
2022-12-20T00:08:38.684Z,21.1500
2022-12-20T00:08:49.786Z,21.1500
2022-12-20T00:09:01.010Z,21.1500
2022-12-20T00:09:12.189Z,21.1500
2022-12-20T00:09:23.378Z,21.1500
2022-12-20T00:09:34.431Z,21.1600
2022-12-20T00:09:45.481Z,21.1600
2022-12-20T00:09:56.643Z,21.1600
2022-12-20T00:10:07.694Z,21.1600
2022-12-20T00:10:18.756Z,21.1600
2022-12-20T00:10:29.926Z,21.1600
2022-12-20T00:10:41.108Z,21.1500
2022-12-20T00:10:52.227Z,21.1500
2022-12-20T00:11:03.430Z,21.1500
2022-12-20T00:11:14.652Z,21.1500
2022-12-20T00:11:25.830Z,21.1500
2022-12-20T00:11:36.868Z,21.1500
2022-12-20T00:11:47.933Z,21.1400
2022-12-20T00:11:58.994Z,21.1400
2022-12-20T00:12:10.097Z,21.1400
2022-12-20T00:12:21.182Z,21.1400
2022-12-20T00:12:32.222Z,21.1400
2022-12-20T00:12:43.285Z,21.1400
2022-12-20T00:12:54.353Z,21.1400
2022-12-20T00:13:05.397Z,21.1400
2022-12-20T00:13:16.472Z,21.1400
2022-12-20T00:13:27.542Z,21.1400
2022-12-20T00:13:38.670Z,21.1400
2022-12-20T00:13:49.732Z,21.1400
2022-12-20T00:14:00.813Z,21.1400
2022-12-20T00:14:11.892Z,21.1400
2022-12-20T00:14:22.979Z,21.1400
2022-12-20T00:14:34.080Z,21.1400
2022-12-20T00:14:45.254Z,21.1300
2022-12-20T00:14:56.330Z,21.1400
2022-12-20T00:15:07.489Z,21.1400
2022-12-20T00:15:18.595Z,21.1400
2022-12-20T00:15:29.706Z,21.1300
2022-12-20T00:15:40.817Z,21.1400
2022-12-20T00:15:51.927Z,21.1400
2022-12-20T00:16:03.033Z,21.1400
2022-12-20T00:16:14.079Z,21.1400
2022-12-20T00:16:25.227Z,21.1500
2022-12-20T00:16:36.269Z,21.1400
2022-12-20T00:16:47.413Z,21.1500
2022-12-20T00:16:58.450Z,21.1500
2022-12-20T00:17:09.508Z,21.1400
2022-12-20T00:17:20.766Z,21.1400
2022-12-20T00:17:31.906Z,21.1400
2022-12-20T00:17:43.180Z,21.1300
2022-12-20T00:17:54.415Z,21.1300
2022-12-20T00:18:05.590Z,21.1300
2022-12-20T00:18:16.695Z,21.1300
2022-12-20T00:18:27.904Z,21.1400
2022-12-20T00:18:39.082Z,21.1400
2022-12-20T00:18:50.141Z,21.1300
2022-12-20T00:19:01.220Z,21.1300
2022-12-20T00:19:12.416Z,21.1300
2022-12-20T00:19:23.551Z,21.1300
2022-12-20T00:19:34.779Z,21.1300
2022-12-20T00:19:45.837Z,21.1300
2022-12-20T00:19:56.910Z,21.1300
2022-12-20T00:20:08.076Z,21.1300
2022-12-20T00:20:19.142Z,21.1300
2022-12-20T00:20:30.222Z,21.1300
2022-12-20T00:20:41.273Z,21.1300
2022-12-20T00:20:52.352Z,21.1300
2022-12-20T00:21:03.432Z,21.1300
2022-12-20T00:21:14.504Z,21.1300
2022-12-20T00:21:25.555Z,21.1300
2022-12-20T00:21:36.715Z,21.1300
2022-12-20T00:21:47.914Z,21.1300
2022-12-20T00:21:59.103Z,21.1400
2022-12-20T00:22:10.312Z,21.1400
2022-12-20T00:22:21.434Z,21.1300
2022-12-20T00:22:32.484Z,21.1400
2022-12-20T00:22:43.599Z,21.1400
2022-12-20T00:22:54.801Z,21.1400
2022-12-20T00:23:05.858Z,21.1400
2022-12-20T00:23:16.924Z,21.1400
2022-12-20T00:23:27.979Z,21.1400
2022-12-20T00:23:39.141Z,21.1400
2022-12-20T00:23:50.203Z,21.1400
2022-12-20T00:24:01.291Z,21.1400
2022-12-20T00:24:12.417Z,21.1400
2022-12-20T00:24:26.405Z,21.1400
2022-12-20T00:24:37.717Z,21.1400
2022-12-20T00:24:48.900Z,21.1300
2022-12-20T00:25:00.136Z,21.1300
2022-12-20T00:25:11.310Z,21.1400
2022-12-20T00:25:22.508Z,21.1400
2022-12-20T00:25:33.711Z,21.1400
2022-12-20T00:25:44.912Z,21.1400
2022-12-20T00:25:55.982Z,21.1400
2022-12-20T00:26:07.076Z,21.1400
2022-12-20T00:26:18.203Z,21.1400
2022-12-20T00:26:29.391Z,21.1500
2022-12-20T00:26:40.627Z,21.1500
2022-12-20T00:26:51.778Z,21.1500
2022-12-20T00:27:02.826Z,21.1500
2022-12-20T00:27:13.903Z,21.1400
2022-12-20T00:27:25.066Z,21.1500
2022-12-20T00:27:36.132Z,21.1500
2022-12-20T00:27:47.199Z,21.1500
2022-12-20T00:27:58.300Z,21.1500
2022-12-20T00:28:09.342Z,21.1500
2022-12-20T00:28:20.420Z,21.1500
2022-12-20T00:28:31.553Z,21.1500
2022-12-20T00:28:43.224Z,21.1500
2022-12-20T00:28:54.281Z,21.1500
2022-12-20T00:29:05.363Z,21.1500
2022-12-20T00:29:16.443Z,21.1500
2022-12-20T00:29:27.588Z,21.1500
2022-12-20T00:29:38.647Z,21.1500
2022-12-20T00:29:49.741Z,21.1400
2022-12-20T00:30:00.854Z,21.1400
2022-12-20T00:30:12.042Z,21.1400
2022-12-20T00:30:23.245Z,21.1400
2022-12-20T00:30:34.444Z,21.1400
2022-12-20T00:30:45.499Z,21.1400
2022-12-20T00:30:56.577Z,21.1400
2022-12-20T00:31:07.700Z,21.1400
2022-12-20T00:31:18.906Z,21.1400
2022-12-20T00:31:30.264Z,21.1400
2022-12-20T00:31:41.694Z,21.1400
2022-12-20T00:31:53.003Z,21.1300
2022-12-20T00:32:04.120Z,21.1300
2022-12-20T00:32:15.213Z,21.1300
2022-12-20T00:32:26.400Z,21.1300
2022-12-20T00:32:37.612Z,21.1300
2022-12-20T00:32:48.684Z,21.1300
2022-12-20T00:32:59.760Z,21.1400
2022-12-20T00:33:10.891Z,21.1400
2022-12-20T00:33:21.930Z,21.1300
2022-12-20T00:33:33.001Z,21.1300
2022-12-20T00:33:44.175Z,21.1300
2022-12-20T00:33:55.373Z,21.1300
2022-12-20T00:34:06.576Z,21.1300
2022-12-20T00:34:17.622Z,21.1300
2022-12-20T00:34:28.720Z,21.1300
2022-12-20T00:34:39.854Z,21.1300
2022-12-20T00:34:51.082Z,21.1300
2022-12-20T00:35:02.267Z,21.1300
2022-12-20T00:35:13.477Z,21.1300
2022-12-20T00:35:24.682Z,21.1300
2022-12-20T00:35:35.896Z,21.1300
2022-12-20T00:35:47.089Z,21.1300
2022-12-20T00:35:58.299Z,21.1300
2022-12-20T00:36:09.478Z,21.1300
2022-12-20T00:36:20.711Z,21.1300
2022-12-20T00:36:31.786Z,21.1300
2022-12-20T00:36:42.860Z,21.1300
2022-12-20T00:36:53.948Z,21.1300
2022-12-20T00:37:04.984Z,21.1300
2022-12-20T00:37:16.048Z,21.1300
2022-12-20T00:37:27.136Z,21.1400
2022-12-20T00:37:38.212Z,21.1400
2022-12-20T00:37:49.323Z,21.1400
2022-12-20T00:38:00.427Z,21.1400
2022-12-20T00:38:11.516Z,21.1400
2022-12-20T00:38:22.582Z,21.1400
2022-12-20T00:38:33.716Z,21.1400
2022-12-20T00:38:44.919Z,21.1400
2022-12-20T00:38:55.994Z,21.1400
2022-12-20T00:39:07.048Z,21.1400
2022-12-20T00:39:18.108Z,21.1400
2022-12-20T00:39:29.340Z,21.1300
2022-12-20T00:39:40.406Z,21.1300
2022-12-20T00:39:51.497Z,21.1300
2022-12-20T00:40:02.603Z,21.1400
2022-12-20T00:40:13.760Z,21.1400
2022-12-20T00:40:24.996Z,21.1300
2022-12-20T00:40:36.192Z,21.1300
2022-12-20T00:40:47.395Z,21.1300
2022-12-20T00:40:58.468Z,21.1300
2022-12-20T00:41:09.554Z,21.1300
2022-12-20T00:41:20.686Z,21.1300
2022-12-20T00:41:31.872Z,21.1300
2022-12-20T00:41:43.073Z,21.1200
2022-12-20T00:41:54.273Z,21.1200
2022-12-20T00:42:05.484Z,21.1200
2022-12-20T00:42:16.700Z,21.1200
2022-12-20T00:42:27.874Z,21.1200
2022-12-20T00:42:39.079Z,21.1200
2022-12-20T00:42:50.261Z,21.1100
2022-12-20T00:43:01.327Z,21.1100
2022-12-20T00:43:12.396Z,21.1200
2022-12-20T00:43:23.553Z,21.1200
2022-12-20T00:43:34.753Z,21.1200
2022-12-20T00:43:45.956Z,21.1200
2022-12-20T00:43:57.159Z,21.1200
2022-12-20T00:44:08.222Z,21.1200
2022-12-20T00:44:19.455Z,21.1200
2022-12-20T00:44:30.565Z,21.1200
2022-12-20T00:44:41.618Z,21.1100
2022-12-20T00:44:52.699Z,21.1100
2022-12-20T00:45:03.768Z,21.1100
2022-12-20T00:45:14.952Z,21.1200
2022-12-20T00:45:26.143Z,21.1200
2022-12-20T00:45:37.367Z,21.1200
2022-12-20T00:45:48.449Z,21.1200
2022-12-20T00:45:59.652Z,21.1200
2022-12-20T00:46:10.847Z,21.1200
2022-12-20T00:46:22.132Z,21.1200
2022-12-20T00:46:33.359Z,21.1200
2022-12-20T00:46:44.508Z,21.1200
2022-12-20T00:46:55.630Z,21.1100
2022-12-20T00:47:06.785Z,21.1100
2022-12-20T00:47:17.988Z,21.1100
2022-12-20T00:47:29.095Z,21.1100
2022-12-20T00:47:40.269Z,21.1100
2022-12-20T00:47:51.482Z,21.1100
2022-12-20T00:48:02.685Z,21.1100
2022-12-20T00:48:13.889Z,21.1100
2022-12-20T00:48:24.955Z,21.1100
2022-12-20T00:48:36.027Z,21.1100
2022-12-20T00:48:47.173Z,21.1100
2022-12-20T00:48:58.364Z,21.1100
2022-12-20T00:49:09.577Z,21.1100
2022-12-20T00:49:20.770Z,21.1100
2022-12-20T00:49:32.018Z,21.1100
2022-12-20T00:49:43.166Z,21.1100
2022-12-20T00:49:54.377Z,21.1100
2022-12-20T00:50:05.563Z,21.1100
2022-12-20T00:50:16.756Z,21.1100
2022-12-20T00:50:27.959Z,21.1100
2022-12-20T00:50:39.025Z,21.1100
2022-12-20T00:50:50.089Z,21.1100
2022-12-20T00:51:01.169Z,21.1100
2022-12-20T00:51:12.202Z,21.1100
2022-12-20T00:51:23.415Z,21.1100
2022-12-20T00:51:34.609Z,21.1100
2022-12-20T00:51:45.821Z,21.1100
2022-12-20T00:51:56.995Z,21.1100
2022-12-20T00:52:08.196Z,21.1100
2022-12-20T00:52:19.273Z,21.1100
2022-12-20T00:52:30.340Z,21.1100
2022-12-20T00:52:41.486Z,21.1100
2022-12-20T00:52:52.695Z,21.1100
2022-12-20T00:53:03.765Z,21.1100
2022-12-20T00:53:14.853Z,21.1100
2022-12-20T00:53:26.627Z,21.1100
2022-12-20T00:53:37.946Z,21.1100
2022-12-20T00:53:48.997Z,21.1000
2022-12-20T00:54:00.102Z,21.1100
2022-12-20T00:54:11.143Z,21.1100
2022-12-20T00:54:22.434Z,21.1100
2022-12-20T00:54:33.551Z,21.1100
2022-12-20T00:54:44.742Z,21.1100
2022-12-20T00:54:55.847Z,21.1100
2022-12-20T00:55:06.924Z,21.1100
2022-12-20T00:55:18.016Z,21.1100
2022-12-20T00:55:29.285Z,21.1100
2022-12-20T00:55:40.489Z,21.1100
2022-12-20T00:55:51.676Z,21.1100
2022-12-20T00:56:02.883Z,21.1100
2022-12-20T00:56:14.083Z,21.1100
2022-12-20T00:56:25.905Z,21.1100
2022-12-20T00:56:37.472Z,21.1100
2022-12-20T00:56:48.637Z,21.1100
2022-12-20T00:56:59.712Z,21.1100
2022-12-20T00:57:10.761Z,21.1100
2022-12-20T00:57:21.935Z,21.1100
2022-12-20T00:57:32.993Z,21.1000
2022-12-20T00:57:44.049Z,21.1000
2022-12-20T00:57:55.281Z,21.1100
2022-12-20T00:58:06.458Z,21.1100
2022-12-20T00:58:17.525Z,21.1100
2022-12-20T00:58:28.653Z,21.1100
2022-12-20T00:58:39.812Z,21.1100
2022-12-20T00:58:51.023Z,21.1100
2022-12-20T00:59:02.159Z,21.1100
2022-12-20T00:59:13.423Z,21.1100
2022-12-20T00:59:24.576Z,21.1000
2022-12-20T00:59:35.801Z,21.1000
2022-12-20T00:59:47.002Z,21.1000
2022-12-20T00:59:58.174Z,21.1000
2022-12-20T01:00:09.387Z,21.0900
2022-12-20T01:00:20.583Z,21.0900
2022-12-20T01:00:31.775Z,21.0900
2022-12-20T01:00:43.035Z,21.0900
2022-12-20T01:00:56.917Z,21.0900
2022-12-20T01:01:08.673Z,21.0900
2022-12-20T01:01:19.894Z,21.0800
2022-12-20T01:01:31.688Z,21.0800
2022-12-20T01:01:43.447Z,21.0800
2022-12-20T01:01:54.897Z,21.0800
2022-12-20T01:02:06.378Z,21.0900
2022-12-20T01:02:17.862Z,21.0900
2022-12-20T01:02:29.571Z,21.0900
2022-12-20T01:02:40.946Z,21.0900
2022-12-20T01:02:52.570Z,21.0900
2022-12-20T01:03:04.075Z,21.0900
2022-12-20T01:03:15.554Z,21.0900
2022-12-20T01:03:27.100Z,21.0900
2022-12-20T01:03:38.357Z,21.0900
2022-12-20T01:03:49.669Z,21.0900
2022-12-20T01:04:00.780Z,21.0900
2022-12-20T01:04:11.862Z,21.0900
2022-12-20T01:04:22.973Z,21.0900
2022-12-20T01:04:34.044Z,21.0900
2022-12-20T01:04:45.316Z,21.1000
2022-12-20T01:04:56.450Z,21.1000
2022-12-20T01:05:07.680Z,21.1000
2022-12-20T01:05:18.848Z,21.1000
2022-12-20T01:05:30.070Z,21.1000
2022-12-20T01:05:41.263Z,21.1000
2022-12-20T01:05:52.470Z,21.1000
2022-12-20T01:06:03.650Z,21.1000
2022-12-20T01:06:14.863Z,21.1000
2022-12-20T01:06:26.059Z,21.1000
2022-12-20T01:06:37.262Z,21.1000
2022-12-20T01:06:48.333Z,21.1000
2022-12-20T01:06:59.408Z,21.1000
2022-12-20T01:07:10.543Z,21.1000
2022-12-20T01:07:21.609Z,21.1000
2022-12-20T01:07:32.749Z,21.1000
2022-12-20T01:07:43.809Z,21.1000
2022-12-20T01:07:54.887Z,21.1000
2022-12-20T01:08:05.968Z,21.1000
2022-12-20T01:08:17.084Z,21.1000
2022-12-20T01:08:28.123Z,21.1000
2022-12-20T01:08:39.195Z,21.1000
2022-12-20T01:08:50.369Z,21.1000
2022-12-20T01:09:01.422Z,21.0900
2022-12-20T01:09:12.506Z,21.0900
2022-12-20T01:09:23.672Z,21.0900
2022-12-20T01:09:34.728Z,21.0900
2022-12-20T01:09:45.830Z,21.0900
2022-12-20T01:09:56.962Z,21.0900
2022-12-20T01:10:07.990Z,21.0900
2022-12-20T01:10:19.066Z,21.1000
2022-12-20T01:10:30.222Z,21.1000
2022-12-20T01:10:41.280Z,21.1000
2022-12-20T01:10:52.345Z,21.1000
2022-12-20T01:11:03.528Z,21.1000
2022-12-20T01:11:14.610Z,21.1000
2022-12-20T01:11:25.697Z,21.1000
2022-12-20T01:11:36.791Z,21.1000
2022-12-20T01:11:47.849Z,21.0900
2022-12-20T01:11:58.966Z,21.0900
2022-12-20T01:12:10.053Z,21.0900
2022-12-20T01:12:21.126Z,21.0900
2022-12-20T01:12:32.204Z,21.0900
2022-12-20T01:12:43.342Z,21.0900
2022-12-20T01:12:54.542Z,21.0900
2022-12-20T01:13:05.723Z,21.0900
2022-12-20T01:13:16.927Z,21.0900
2022-12-20T01:13:28.163Z,21.0900
2022-12-20T01:13:39.198Z,21.0900
2022-12-20T01:13:50.282Z,21.0900
2022-12-20T01:14:01.439Z,21.0900
2022-12-20T01:14:12.611Z,21.0900
2022-12-20T01:14:23.811Z,21.0900
2022-12-20T01:14:35.052Z,21.0900
2022-12-20T01:14:46.224Z,21.0900
2022-12-20T01:14:57.443Z,21.0900
2022-12-20T01:15:08.613Z,21.0900
2022-12-20T01:15:19.773Z,21.0900
2022-12-20T01:15:30.832Z,21.0900
2022-12-20T01:15:41.898Z,21.0900
2022-12-20T01:15:53.106Z,21.0900
2022-12-20T01:16:04.343Z,21.0900
2022-12-20T01:16:15.563Z,21.0900
2022-12-20T01:16:26.849Z,21.0900
2022-12-20T01:16:38.031Z,21.0900
2022-12-20T01:16:49.202Z,21.0900
2022-12-20T01:17:00.368Z,21.0900
2022-12-20T01:17:11.499Z,21.0900
2022-12-20T01:17:22.548Z,21.0900
2022-12-20T01:17:33.618Z,21.0900
2022-12-20T01:17:44.779Z,21.0900
2022-12-20T01:17:55.839Z,21.0900
2022-12-20T01:18:06.915Z,21.0900
2022-12-20T01:18:18.046Z,21.0900
2022-12-20T01:18:29.105Z,21.0900
2022-12-20T01:18:40.229Z,21.0900
2022-12-20T01:18:51.379Z,21.0900
2022-12-20T01:19:02.631Z,21.0900
2022-12-20T01:19:13.790Z,21.0900
2022-12-20T01:19:25.023Z,21.0800
2022-12-20T01:19:36.188Z,21.0800
2022-12-20T01:19:47.341Z,21.0800
2022-12-20T01:19:58.618Z,21.0900
2022-12-20T01:20:09.835Z,21.0900
2022-12-20T01:20:21.015Z,21.0900
2022-12-20T01:20:32.139Z,21.0900
2022-12-20T01:20:43.375Z,21.0900
2022-12-20T01:20:54.615Z,21.0900
2022-12-20T01:21:05.799Z,21.0900
2022-12-20T01:21:17.013Z,21.0900
2022-12-20T01:21:28.184Z,21.0900
2022-12-20T01:21:39.403Z,21.0900
2022-12-20T01:21:50.580Z,21.0900
2022-12-20T01:22:01.804Z,21.0900
2022-12-20T01:22:12.982Z,21.0900
2022-12-20T01:22:24.210Z,21.0900
2022-12-20T01:22:35.388Z,21.0900
2022-12-20T01:22:47.773Z,21.0800
2022-12-20T01:22:59.116Z,21.0800
2022-12-20T01:23:10.287Z,21.0800
2022-12-20T01:23:21.465Z,21.0800
2022-12-20T01:23:32.680Z,21.0800
2022-12-20T01:23:43.741Z,21.0900
2022-12-20T01:23:54.821Z,21.0900
2022-12-20T01:24:05.940Z,21.0900
2022-12-20T01:24:17.153Z,21.0900
2022-12-20T01:24:28.230Z,21.0900
2022-12-20T01:24:39.335Z,21.0900
2022-12-20T01:24:50.420Z,21.1000
2022-12-20T01:25:01.478Z,21.1000
2022-12-20T01:25:12.567Z,21.1000
2022-12-20T01:25:23.629Z,21.1000
2022-12-20T01:25:36.903Z,21.1000
2022-12-20T01:25:48.065Z,21.0900
2022-12-20T01:25:59.224Z,21.0900
2022-12-20T01:26:10.303Z,21.0900
2022-12-20T01:26:21.380Z,21.0900
2022-12-20T01:26:32.523Z,21.0900
2022-12-20T01:26:43.710Z,21.0900
2022-12-20T01:26:54.922Z,21.1000
2022-12-20T01:27:06.145Z,21.1000
2022-12-20T01:27:17.238Z,21.1000
2022-12-20T01:27:28.430Z,21.1000
2022-12-20T01:27:39.511Z,21.1000
2022-12-20T01:27:50.575Z,21.1000
2022-12-20T01:28:01.644Z,21.1000
2022-12-20T01:28:12.722Z,21.0900
2022-12-20T01:28:23.918Z,21.0900
2022-12-20T01:28:35.111Z,21.0900
2022-12-20T01:28:46.310Z,21.0900
2022-12-20T01:28:57.394Z,21.0900
2022-12-20T01:29:08.437Z,21.0900
2022-12-20T01:29:19.595Z,21.0900
2022-12-20T01:29:30.785Z,21.0900
2022-12-20T01:29:41.946Z,21.0900
2022-12-20T01:29:53.169Z,21.0900
2022-12-20T01:30:04.229Z,21.0900
2022-12-20T01:30:15.450Z,21.0900
2022-12-20T01:30:26.518Z,21.0900
2022-12-20T01:30:37.576Z,21.0900
2022-12-20T01:30:48.725Z,21.0900
2022-12-20T01:30:59.954Z,21.0900
2022-12-20T01:31:11.175Z,21.0900
2022-12-20T01:31:22.395Z,21.0900
2022-12-20T01:31:33.562Z,21.0900
2022-12-20T01:31:44.789Z,21.0900
2022-12-20T01:31:55.957Z,21.0900
2022-12-20T01:32:07.341Z,21.0900
2022-12-20T01:32:18.761Z,21.0900
2022-12-20T01:32:29.846Z,21.0900
2022-12-20T01:32:41.036Z,21.0900
2022-12-20T01:32:52.069Z,21.0900
2022-12-20T01:33:03.128Z,21.0900
2022-12-20T01:33:14.334Z,21.0800
2022-12-20T01:33:25.513Z,21.0900
2022-12-20T01:33:36.715Z,21.0800
2022-12-20T01:33:47.924Z,21.0800
2022-12-20T01:33:58.999Z,21.0800
2022-12-20T01:34:10.044Z,21.0800
2022-12-20T01:34:21.220Z,21.0800
2022-12-20T01:34:32.386Z,21.0800
2022-12-20T01:34:43.607Z,21.0800
2022-12-20T01:34:54.813Z,21.0700
2022-12-20T01:35:05.874Z,21.0700
2022-12-20T01:35:16.931Z,21.0700
2022-12-20T01:35:28.081Z,21.0700
2022-12-20T01:35:39.273Z,21.0800
2022-12-20T01:35:50.435Z,21.0800
2022-12-20T01:36:01.509Z,21.0800
2022-12-20T01:36:12.705Z,21.0800
2022-12-20T01:36:23.899Z,21.0800
2022-12-20T01:36:34.963Z,21.0800
2022-12-20T01:36:46.033Z,21.0800
2022-12-20T01:36:57.104Z,21.0800
2022-12-20T01:37:08.152Z,21.0900
2022-12-20T01:37:19.287Z,21.0900
2022-12-20T01:37:30.442Z,21.0900
2022-12-20T01:37:41.509Z,21.0900
2022-12-20T01:37:52.579Z,21.0900
2022-12-20T01:38:03.741Z,21.0900
2022-12-20T01:38:14.969Z,21.0900
2022-12-20T01:38:26.142Z,21.0900
2022-12-20T01:38:37.347Z,21.0900
2022-12-20T01:38:48.542Z,21.0900
2022-12-20T01:38:59.766Z,21.0900
2022-12-20T01:39:10.811Z,21.0800
2022-12-20T01:39:21.903Z,21.0800
2022-12-20T01:39:33.130Z,21.0900
2022-12-20T01:39:44.311Z,21.0800
2022-12-20T01:39:55.483Z,21.0800
2022-12-20T01:40:06.544Z,21.0800
2022-12-20T01:40:17.626Z,21.0800
2022-12-20T01:40:28.795Z,21.0800
2022-12-20T01:40:40.014Z,21.0800
2022-12-20T01:40:51.191Z,21.0800
2022-12-20T01:41:02.412Z,21.0800
2022-12-20T01:41:13.470Z,21.0700
2022-12-20T01:41:24.540Z,21.0700
2022-12-20T01:41:35.685Z,21.0700
2022-12-20T01:41:46.902Z,21.0700
2022-12-20T01:41:57.951Z,21.0800
2022-12-20T01:42:09.023Z,21.0800
2022-12-20T01:42:20.084Z,21.0800
2022-12-20T01:42:31.182Z,21.0800
2022-12-20T01:42:42.235Z,21.0800
2022-12-20T01:42:53.434Z,21.0800
2022-12-20T01:43:04.637Z,21.0800
2022-12-20T01:43:15.694Z,21.0800
2022-12-20T01:43:26.831Z,21.0800
2022-12-20T01:43:37.912Z,21.0800
2022-12-20T01:43:49.116Z,21.0800
2022-12-20T01:44:00.183Z,21.0800
2022-12-20T01:44:11.254Z,21.0800
2022-12-20T01:44:22.413Z,21.0800
2022-12-20T01:44:33.486Z,21.0800
2022-12-20T01:44:44.576Z,21.0800
2022-12-20T01:44:55.716Z,21.0900
2022-12-20T01:45:06.887Z,21.0900
2022-12-20T01:45:18.065Z,21.0900
2022-12-20T01:45:29.321Z,21.0900
2022-12-20T01:45:40.420Z,21.0900
2022-12-20T01:45:51.536Z,21.0900
2022-12-20T01:46:02.642Z,21.0900
2022-12-20T01:46:13.846Z,21.0900
2022-12-20T01:46:25.112Z,21.0900
2022-12-20T01:46:36.406Z,21.0900
2022-12-20T01:46:47.564Z,21.0900
2022-12-20T01:46:58.621Z,21.0900
2022-12-20T01:47:09.688Z,21.1000
2022-12-20T01:47:20.752Z,21.1000
2022-12-20T01:47:31.845Z,21.1000
2022-12-20T01:47:43.053Z,21.1000
2022-12-20T01:47:54.116Z,21.1000
2022-12-20T01:48:05.196Z,21.1000
2022-12-20T01:48:16.315Z,21.1000
2022-12-20T01:48:27.376Z,21.1000
2022-12-20T01:48:38.471Z,21.0900
2022-12-20T01:48:49.544Z,21.0900
2022-12-20T01:49:00.634Z,21.0900
2022-12-20T01:49:11.696Z,21.0900
2022-12-20T01:49:22.756Z,21.0900
2022-12-20T01:49:33.930Z,21.0900
2022-12-20T01:49:45.126Z,21.0900
2022-12-20T01:49:56.196Z,21.0900
2022-12-20T01:50:07.289Z,21.0900
2022-12-20T01:50:18.426Z,21.0900
2022-12-20T01:50:29.487Z,21.0900
2022-12-20T01:50:40.567Z,21.0900
2022-12-20T01:50:51.673Z,21.1000
2022-12-20T01:51:02.896Z,21.1000
2022-12-20T01:51:14.085Z,21.1000
2022-12-20T01:51:25.285Z,21.1000
2022-12-20T01:51:36.350Z,21.1000
2022-12-20T01:51:47.414Z,21.1000
2022-12-20T01:51:58.578Z,21.1000
2022-12-20T01:52:09.642Z,21.1000
2022-12-20T01:52:20.723Z,21.0900
2022-12-20T01:52:31.847Z,21.0900
2022-12-20T01:52:42.910Z,21.0900
2022-12-20T01:52:54.005Z,21.0900
2022-12-20T01:53:05.121Z,21.0900
2022-12-20T01:53:16.328Z,21.0900
2022-12-20T01:53:27.542Z,21.0900
2022-12-20T01:53:38.816Z,21.0900
2022-12-20T01:53:49.977Z,21.0900
2022-12-20T01:54:01.135Z,21.0900
2022-12-20T01:54:12.214Z,21.0900
2022-12-20T01:54:23.325Z,21.0900
2022-12-20T01:54:34.486Z,21.0900
2022-12-20T01:54:45.644Z,21.0900
2022-12-20T01:54:56.758Z,21.0900
2022-12-20T01:55:07.878Z,21.0900
2022-12-20T01:55:18.962Z,21.0900
2022-12-20T01:55:30.085Z,21.0800
2022-12-20T01:55:41.280Z,21.0800
2022-12-20T01:55:52.485Z,21.0900
2022-12-20T01:56:03.684Z,21.0900
2022-12-20T01:56:14.881Z,21.0900
2022-12-20T01:56:26.082Z,21.0900
2022-12-20T01:56:37.283Z,21.0900
2022-12-20T01:56:48.483Z,21.0900
2022-12-20T01:56:59.560Z,21.0900
2022-12-20T01:57:10.623Z,21.0900
2022-12-20T01:57:21.766Z,21.0900
2022-12-20T01:57:32.965Z,21.0800
2022-12-20T01:57:44.163Z,21.0800
2022-12-20T01:57:55.365Z,21.0800
2022-12-20T01:58:06.571Z,21.0800
2022-12-20T01:58:17.764Z,21.0800
2022-12-20T01:58:28.959Z,21.0900
2022-12-20T01:58:40.159Z,21.0900
2022-12-20T01:58:51.365Z,21.0900
2022-12-20T01:59:02.448Z,21.0900
2022-12-20T01:59:13.544Z,21.0900
2022-12-20T01:59:24.648Z,21.0900
2022-12-20T01:59:35.849Z,21.0900
2022-12-20T01:59:47.044Z,21.0900
2022-12-20T01:59:58.152Z,21.0900
2022-12-20T02:00:09.222Z,21.0900
2022-12-20T02:00:20.319Z,21.0900
2022-12-20T02:00:31.535Z,21.0900
2022-12-20T02:00:42.761Z,21.0900
2022-12-20T02:00:53.904Z,21.0900
2022-12-20T02:01:05.181Z,21.0900
2022-12-20T02:01:16.392Z,21.0800
2022-12-20T02:01:27.627Z,21.0800
2022-12-20T02:01:38.868Z,21.0800
2022-12-20T02:01:50.136Z,21.0800
2022-12-20T02:02:01.667Z,21.0800
2022-12-20T02:02:13.248Z,21.0800
2022-12-20T02:02:24.679Z,21.0700
2022-12-20T02:02:35.996Z,21.0700
2022-12-20T02:02:47.397Z,21.0700
2022-12-20T02:02:58.693Z,21.0700
2022-12-20T02:03:10.150Z,21.0700
2022-12-20T02:03:21.568Z,21.0700
2022-12-20T02:03:32.774Z,21.0700
2022-12-20T02:03:43.917Z,21.0700
2022-12-20T02:03:55.003Z,21.0700
2022-12-20T02:04:06.255Z,21.0700
2022-12-20T02:04:17.445Z,21.0700
2022-12-20T02:04:28.510Z,21.0600
2022-12-20T02:04:39.608Z,21.0700
2022-12-20T02:04:50.729Z,21.0700
2022-12-20T02:05:01.864Z,21.0700
2022-12-20T02:05:12.973Z,21.0700
2022-12-20T02:05:24.063Z,21.0800
2022-12-20T02:05:35.200Z,21.0800
2022-12-20T02:05:46.315Z,21.0800
2022-12-20T02:05:57.389Z,21.0800
2022-12-20T02:06:08.624Z,21.0800
2022-12-20T02:06:19.824Z,21.0800
2022-12-20T02:06:30.873Z,21.0700
2022-12-20T02:06:41.969Z,21.0800
2022-12-20T02:06:53.110Z,21.0800
2022-12-20T02:07:04.171Z,21.0800
2022-12-20T02:07:15.251Z,21.0800
2022-12-20T02:07:26.362Z,21.0800
2022-12-20T02:07:37.424Z,21.0800
2022-12-20T02:07:48.491Z,21.0800
2022-12-20T02:07:59.666Z,21.0800
2022-12-20T02:08:10.886Z,21.0800
2022-12-20T02:08:22.078Z,21.0800
2022-12-20T02:08:33.274Z,21.0800
2022-12-20T02:08:44.315Z,21.0800
2022-12-20T02:08:55.385Z,21.0800
2022-12-20T02:09:06.449Z,21.0800
2022-12-20T02:09:17.512Z,21.0800
2022-12-20T02:09:28.627Z,21.0800
2022-12-20T02:09:39.727Z,21.0800
2022-12-20T02:09:50.772Z,21.0800
2022-12-20T02:10:01.911Z,21.0800
2022-12-20T02:10:13.006Z,21.0800
2022-12-20T02:10:24.087Z,21.0800
2022-12-20T02:10:35.173Z,21.0900
2022-12-20T02:10:46.356Z,21.0900
2022-12-20T02:10:57.557Z,21.0900
2022-12-20T02:11:08.628Z,21.0800
2022-12-20T02:11:19.702Z,21.0800
2022-12-20T02:11:30.765Z,21.0800
2022-12-20T02:11:41.861Z,21.0800
2022-12-20T02:11:52.941Z,21.0800
2022-12-20T02:12:04.020Z,21.0700
2022-12-20T02:12:15.148Z,21.0700
2022-12-20T02:12:26.255Z,21.0700
2022-12-20T02:12:37.313Z,21.0700
2022-12-20T02:12:48.368Z,21.0800
2022-12-20T02:12:59.480Z,21.0800
2022-12-20T02:13:10.682Z,21.0800
2022-12-20T02:13:21.753Z,21.0800
2022-12-20T02:13:32.835Z,21.0800
2022-12-20T02:13:43.856Z,21.0800
2022-12-20T02:13:54.928Z,21.0800
2022-12-20T02:14:06.038Z,21.0800
2022-12-20T02:14:17.077Z,21.0800
2022-12-20T02:14:28.179Z,21.0800
2022-12-20T02:14:39.315Z,21.0800
2022-12-20T02:14:50.357Z,21.0800
2022-12-20T02:15:01.428Z,21.0800